Time;durP1;ratioP1;P1;durP2;ratioP2;P2;SDS_P1;SDS_P2;PMS_P1;PMS_P2;Temp;Humidity;BMP_temperature;BMP_pressure;BME280_temperature;BME280_humidity;BME280_pressure;Samples;Min_cycle;Max_cycle;Signal;HPM_P1;HPM_P2
2023/07/12 00:00:28;;;;;;;4.65;2.80;;;19.60;99.90;;;;;;5028295;28;20139;-88
2023/07/12 00:02:55;;;;;;;7.32;3.00;;;19.70;99.90;;;;;;4986106;28;20169;-87
2023/07/12 00:05:25;;;;;;;3.58;2.35;;;19.50;99.90;;;;;;5063140;28;20035;-88
2023/07/12 00:07:52;;;;;;;3.58;2.60;;;20.70;99.90;;;;;;5061210;28;20035;-88
2023/07/12 00:10:25;;;;;;;3.97;2.38;;;18.10;99.90;;;;;;4957996;28;20121;-88
2023/07/12 00:12:53;;;;;;;4.65;3.00;;;20.00;99.90;;;;;;4961101;28;20042;-88
2023/07/12 00:15:28;;;;;;;3.47;3.03;;;19.00;99.90;;;;;;4962816;28;20111;-88
2023/07/12 00:17:55;;;;;;;3.58;2.92;;;18.00;99.90;;;;;;4974936;28;20118;-89
2023/07/12 00:20:27;;;;;;;5.10;3.30;;;19.30;99.90;;;;;;4959285;28;20047;-89
2023/07/12 00:22:53;;;;;;;4.70;3.45;;;20.00;99.90;;;;;;4974266;28;20070;-89
2023/07/12 00:25:22;;;;;;;4.47;3.35;;;18.30;99.90;;;;;;4964981;28;20038;-88
2023/07/12 00:27:48;;;;;;;5.88;4.05;;;18.90;99.90;;;;;;4961326;28;20096;-88
2023/07/12 00:30:22;;;;;;;5.40;3.20;;;17.90;99.90;;;;;;4958463;28;20448;-87
2023/07/12 00:32:49;;;;;;;3.97;3.30;;;20.60;99.90;;;;;;5073330;28;20375;-88
2023/07/12 00:35:19;;;;;;;4.90;3.25;;;18.30;99.90;;;;;;4960458;28;20043;-88
2023/07/12 00:37:45;;;;;;;5.00;3.80;;;19.30;99.90;;;;;;5062374;28;20043;-88
2023/07/12 00:40:29;;;;;;;6.03;4.07;;;19.70;99.90;;;;;;5056344;28;20372;-88
2023/07/12 00:43:05;;;;;;;7.03;4.50;;;19.60;99.90;;;;;;4959715;28;20049;-88
2023/07/12 00:45:32;;;;;;;5.85;4.45;;;19.60;99.90;;;;;;5003407;28;20390;-87
2023/07/12 00:47:58;;;;;;;5.35;4.20;;;19.60;99.90;;;;;;5063746;28;20049;-88
2023/07/12 00:50:24;;;;;;;5.72;4.03;;;19.60;99.90;;;;;;4952701;28;20051;-88
2023/07/12 00:52:53;;;;;;;6.97;4.20;;;20.40;99.90;;;;;;4955166;28;20039;-88
2023/07/12 00:55:57;;;;;;;4.30;3.90;;;18.10;99.90;;;;;;5044605;28;20065;-87
2023/07/12 00:58:25;;;;;;;3.85;3.22;;;17.90;99.90;;;;;;4970333;28;20043;-88
2023/07/12 01:00:54;;;;;;;7.75;3.70;;;19.40;99.90;;;;;;4959184;28;20060;-88
2023/07/12 01:03:22;;;;;;;3.58;2.95;;;19.60;99.90;;;;;;4961874;28;20364;-88
2023/07/12 01:05:48;;;;;;;4.32;3.60;;;18.90;99.90;;;;;;4965056;28;20046;-88
2023/07/12 01:08:15;;;;;;;3.83;2.90;;;17.90;99.90;;;;;;5040887;28;20045;-88
2023/07/12 01:10:40;;;;;;;3.40;2.92;;;18.80;99.90;;;;;;5004936;28;20486;-88
2023/07/12 01:13:09;;;;;;;4.80;3.45;;;20.20;99.90;;;;;;4978730;28;20035;-88
2023/07/12 01:15:35;;;;;;;5.18;3.13;;;17.90;99.90;;;;;;4958976;28;20093;-87
2023/07/12 01:18:06;;;;;;;3.53;2.95;;;18.80;99.90;;;;;;4971932;28;20478;-87
2023/07/12 01:20:40;;;;;;;5.70;3.17;;;19.80;99.90;;;;;;4987612;28;20042;-87
2023/07/12 01:23:06;;;;;;;;;;;19.10;99.90;;;;;;4971408;28;20035;-87
2023/07/12 01:25:38;;;;;;;3.33;2.65;;;18.80;99.90;;;;;;4969795;28;19970;-88
2023/07/12 01:28:04;;;;;;;3.28;2.70;;;19.30;99.90;;;;;;4974899;28;20460;-88
2023/07/12 01:30:31;;;;;;;5.30;2.80;;;18.40;99.90;;;;;;5063733;28;20034;-88
2023/07/12 01:32:56;;;;;;;4.30;3.22;;;19.40;99.90;;;;;;4956217;28;20043;-87
2023/07/12 01:35:22;;;;;;;5.78;3.45;;;18.60;99.90;;;;;;4959255;28;20072;-88
2023/07/12 01:37:48;;;;;;;6.70;3.30;;;19.80;99.90;;;;;;4974685;28;20593;-88
2023/07/12 01:40:14;;;;;;;6.38;3.10;;;18.60;99.90;;;;;;4970591;28;20050;-87
2023/07/12 01:42:43;;;;;;;3.92;3.03;;;19.80;99.90;;;;;;4969725;28;20123;-87
2023/07/12 01:45:09;;;;;;;3.72;3.20;;;18.10;99.90;;;;;;4970939;28;20046;-88
2023/07/12 01:47:36;;;;;;;5.53;3.28;;;18.90;99.90;;;;;;4963487;28;20396;-88
2023/07/12 01:50:02;;;;;;;4.85;3.70;;;18.70;99.90;;;;;;4953981;28;20055;-88
2023/07/12 01:52:28;;;;;;;5.70;2.95;;;18.80;99.90;;;;;;5070503;28;20078;-88
2023/07/12 01:54:54;;;;;;;4.88;3.35;;;19.40;99.90;;;;;;4961773;28;20070;-88
2023/07/12 01:57:19;;;;;;;3.78;3.33;;;18.70;99.90;;;;;;4966783;28;20084;-88
2023/07/12 01:59:45;;;;;;;4.85;3.75;;;19.10;99.90;;;;;;4971190;28;20046;-88
2023/07/12 02:02:11;;;;;;;6.45;3.13;;;18.30;99.90;;;;;;4957510;28;20046;-89
2023/07/12 02:04:37;;;;;;;6.20;3.72;;;18.70;99.90;;;;;;4984495;28;20046;-88
2023/07/12 02:07:03;;;;;;;6.03;3.92;;;18.70;99.90;;;;;;5055136;28;20043;-87
2023/07/12 02:09:40;;;;;;;3.95;3.45;;;19.10;99.90;;;;;;4957219;28;20071;-87
2023/07/12 02:12:06;;;;;;;6.47;3.58;;;18.00;99.90;;;;;;4973504;28;20043;-88
2023/07/12 02:14:32;;;;;;;5.57;3.55;;;19.10;99.90;;;;;;4964852;28;20122;-87
2023/07/12 02:16:58;;;;;;;5.95;4.00;;;18.50;99.90;;;;;;5046110;28;20122;-87
2023/07/12 02:19:23;;;;;;;5.40;3.92;;;19.50;99.90;;;;;;4951628;28;20137;-88
2023/07/12 02:21:49;;;;;;;4.65;3.28;;;17.70;99.90;;;;;;4973939;28;20042;-88
2023/07/12 02:24:15;;;;;;;6.45;3.80;;;17.80;99.90;;;;;;4966069;28;20125;-88
2023/07/12 02:26:41;;;;;;;7.20;4.07;;;19.00;99.90;;;;;;5052272;28;20078;-88
2023/07/12 02:29:08;;;;;;;4.25;3.67;;;18.30;99.90;;;;;;4983538;28;20050;-88
2023/07/12 02:31:34;;;;;;;8.50;4.18;;;18.90;99.90;;;;;;4952643;28;20046;-88
2023/07/12 02:34:00;;;;;;;7.68;3.92;;;19.20;99.90;;;;;;4954088;28;20039;-87
2023/07/12 02:36:27;;;;;;;6.97;5.20;;;18.20;99.90;;;;;;5042779;28;20046;-88
2023/07/12 02:38:53;;;;;;;5.88;4.88;;;17.80;99.90;;;;;;4961883;28;20074;-87
2023/07/12 02:41:19;;;;;;;5.50;4.10;;;18.50;99.90;;;;;;4954282;28;20441;-88
2023/07/12 02:43:47;;;;;;;10.73;4.95;;;18.20;99.90;;;;;;4967149;28;20483;-87
2023/07/12 02:46:16;;;;;;;9.27;5.13;;;19.00;99.90;;;;;;5058567;28;20107;-88
2023/07/12 02:48:43;;;;;;;8.77;5.28;;;18.50;99.90;;;;;;4956920;28;20436;-88
2023/07/12 02:51:08;;;;;;;10.65;5.22;;;18.10;99.90;;;;;;4971529;28;20499;-87
2023/07/12 02:53:34;;;;;;;9.38;4.63;;;18.00;99.90;;;;;;4949137;28;20046;-88
2023/07/12 02:56:08;;;;;;;8.35;5.43;;;18.00;99.90;;;;;;4973213;28;20077;-88
2023/07/12 02:58:34;;;;;;;10.07;5.47;;;18.30;99.90;;;;;;5063156;28;20083;-87
2023/07/12 03:01:00;;;;;;;8.57;5.10;;;18.00;99.90;;;;;;4972425;28;20043;-88
2023/07/12 03:03:30;;;;;;;8.82;5.13;;;17.90;99.90;;;;;;4961844;28;20092;-88
2023/07/12 03:05:55;;;;;;;8.85;4.93;;;18.10;99.90;;;;;;4979401;28;20038;-88
2023/07/12 03:08:21;;;;;;;10.70;5.70;;;18.60;99.90;;;;;;4963666;28;20049;-87
2023/07/12 03:10:48;;;;;;;11.07;5.43;;;17.80;99.90;;;;;;5079117;28;20042;-88
2023/07/12 03:13:17;;;;;;;7.75;5.38;;;17.80;99.90;;;;;;4962959;28;20125;-89
2023/07/12 03:15:42;;;;;;;10.73;5.50;;;18.00;99.90;;;;;;5036643;28;20127;-88
2023/07/12 03:18:08;;;;;;;11.32;5.43;;;17.80;99.90;;;;;;4971305;28;20066;-87
2023/07/12 03:20:34;;;;;;;11.02;5.20;;;17.80;99.90;;;;;;4976469;28;20147;-87
2023/07/12 03:23:00;;;;;;;11.82;5.72;;;18.30;99.90;;;;;;5054608;28;20379;-87
2023/07/12 03:25:25;;;;;;;7.32;4.72;;;18.10;99.90;;;;;;4967295;28;20482;-87
2023/07/12 03:27:51;;;;;;;12.18;5.18;;;18.20;99.90;;;;;;5057744;28;20059;-87
2023/07/12 03:30:17;;;;;;;10.15;5.60;;;18.10;99.90;;;;;;5061873;28;20039;-87
2023/07/12 03:32:42;;;;;;;14.00;5.05;;;18.60;99.90;;;;;;4973997;28;20050;-87
2023/07/12 03:35:09;;;;;;;11.98;5.13;;;17.60;99.90;;;;;;4965113;28;20126;-87
2023/07/12 03:37:34;;;;;;;10.95;5.20;;;18.50;99.90;;;;;;4985099;28;20413;-87
2023/07/12 03:40:00;;;;;;;10.02;5.20;;;18.30;99.90;;;;;;4961690;28;20039;-87
2023/07/12 03:42:26;;;;;;;15.55;5.60;;;18.30;99.90;;;;;;4975332;28;20120;-87
2023/07/12 03:44:52;;;;;;;8.93;5.45;;;18.60;99.90;;;;;;4985410;28;20046;-87
2023/07/12 03:47:17;;;;;;;11.77;6.18;;;18.60;99.90;;;;;;4951502;28;20427;-88
2023/07/12 03:49:43;;;;;;;12.65;5.40;;;18.30;99.90;;;;;;4973768;28;20054;-87
2023/07/12 03:52:09;;;;;;;16.70;6.22;;;17.60;99.90;;;;;;4958258;28;20031;-87
2023/07/12 03:54:35;;;;;;;10.40;5.07;;;18.50;99.90;;;;;;5079226;28;20042;-87
2023/07/12 03:57:00;;;;;;;18.90;6.43;;;17.80;99.90;;;;;;4985392;28;20508;-87
2023/07/12 03:59:26;;;;;;;12.93;4.95;;;18.00;99.90;;;;;;4942659;28;20046;-88
2023/07/12 04:01:53;;;;;;;15.20;5.55;;;18.40;99.90;;;;;;4940642;28;20536;-88
2023/07/12 04:04:19;;;;;;;11.98;4.78;;;18.10;99.90;;;;;;5054629;28;20047;-87
2023/07/12 04:06:44;;;;;;;12.40;4.90;;;18.20;99.90;;;;;;4956079;28;20724;-87
2023/07/12 04:09:10;;;;;;;16.13;5.70;;;18.20;99.90;;;;;;5020962;28;20038;-88
2023/07/12 04:11:38;;;;;;;13.25;5.65;;;17.80;99.90;;;;;;4973007;28;20121;-88
2023/07/12 04:14:04;;;;;;;9.43;4.78;;;18.30;99.90;;;;;;5051606;28;20554;-88
2023/07/12 04:16:30;;;;;;;22.02;5.70;;;18.40;99.90;;;;;;4963215;28;20134;-88
2023/07/12 04:18:56;;;;;;;11.52;4.50;;;17.70;99.90;;;;;;4968513;28;20077;-88
2023/07/12 04:21:22;;;;;;;10.95;4.97;;;18.40;99.90;;;;;;4959275;28;20085;-88
2023/07/12 04:23:51;;;;;;;11.82;4.93;;;18.40;99.90;;;;;;4957955;28;20044;-88
2023/07/12 04:26:17;;;;;;;16.35;5.53;;;18.20;99.90;;;;;;4966602;28;20126;-88
2023/07/12 04:28:48;;;;;;;13.00;4.78;;;17.60;99.90;;;;;;5007096;28;20065;-88
2023/07/12 04:31:16;;;;;;;9.93;4.90;;;17.60;99.90;;;;;;4964908;28;20112;-89
2023/07/12 04:33:41;;;;;;;16.05;5.22;;;17.70;99.90;;;;;;4972806;28;20121;-88
2023/07/12 04:36:09;;;;;;;10.90;4.68;;;18.50;99.90;;;;;;4963190;28;20125;-88
2023/07/12 04:38:37;;;;;;;18.60;5.20;;;18.10;99.90;;;;;;4970998;28;20392;-89
2023/07/12 04:41:03;;;;;;;12.23;4.88;;;18.30;99.90;;;;;;4955984;28;20092;-88
2023/07/12 04:43:30;;;;;;;13.70;5.60;;;18.50;99.90;;;;;;5059589;28;20039;-88
2023/07/12 04:45:57;;;;;;;14.95;5.32;;;18.10;99.90;;;;;;5057335;28;20050;-88
2023/07/12 04:48:23;;;;;;;16.13;5.78;;;18.10;99.90;;;;;;4978552;28;20074;-89
2023/07/12 04:50:53;;;;;;;12.27;4.90;;;18.10;99.90;;;;;;5061531;28;20042;-88
2023/07/12 04:53:21;;;;;;;13.95;5.35;;;17.70;99.90;;;;;;5006510;28;20036;-88
2023/07/12 04:55:50;;;;;;;13.35;6.00;;;18.00;99.90;;;;;;4982826;28;20039;-88
2023/07/12 04:58:16;;;;;;;14.18;5.93;;;18.10;99.90;;;;;;5056475;28;20039;-88
2023/07/12 05:00:45;;;;;;;15.88;6.35;;;18.10;99.90;;;;;;4979877;28;20034;-89
2023/07/12 05:03:12;;;;;;;11.85;5.97;;;17.30;99.90;;;;;;4973077;28;20038;-88
2023/07/12 05:05:39;;;;;;;11.35;5.57;;;17.90;99.90;;;;;;4967846;28;20555;-87
2023/07/12 05:08:05;;;;;;;11.88;5.70;;;18.30;99.90;;;;;;4994474;28;20499;-88
2023/07/12 05:10:31;;;;;;;14.68;5.97;;;17.70;99.90;;;;;;4965447;28;20035;-86
2023/07/12 05:12:57;;;;;;;13.15;5.93;;;17.90;99.90;;;;;;5021715;28;20122;-88
2023/07/12 05:15:24;;;;;;;11.90;6.05;;;18.30;99.90;;;;;;5052664;28;20068;-87
2023/07/12 05:17:51;;;;;;;16.48;6.00;;;18.50;99.90;;;;;;5058054;28;20046;-89
2023/07/12 05:20:20;;;;;;;10.88;5.70;;;18.40;99.90;;;;;;5082899;28;20043;-88
2023/07/12 05:22:49;;;;;;;15.20;6.22;;;18.60;99.90;;;;;;5067569;28;20046;-88
2023/07/12 05:25:15;;;;;;;13.15;5.65;;;18.90;99.90;;;;;;4957992;28;20053;-88
2023/07/12 05:27:41;;;;;;;15.88;6.07;;;18.00;99.90;;;;;;4969951;28;20394;-87
2023/07/12 05:30:08;;;;;;;15.13;5.80;;;18.70;99.90;;;;;;4971832;28;20050;-87
2023/07/12 05:32:33;;;;;;;12.70;5.30;;;18.60;99.90;;;;;;4949712;28;20043;-88
2023/07/12 05:34:59;;;;;;;11.68;5.47;;;18.10;99.90;;;;;;5073746;28;20038;-87
2023/07/12 05:37:25;;;;;;;13.35;5.45;;;18.90;99.90;;;;;;4974219;28;20056;-87
2023/07/12 05:39:51;;;;;;;15.32;6.15;;;18.30;99.90;;;;;;4984838;28;20038;-88
2023/07/12 05:42:18;;;;;;;16.17;5.22;;;18.50;99.90;;;;;;5020539;28;20036;-88
2023/07/12 05:44:44;;;;;;;10.50;5.93;;;18.10;99.90;;;;;;4998336;28;20042;-86
2023/07/12 05:47:10;;;;;;;9.93;5.65;;;18.30;99.90;;;;;;4965264;28;20040;-88
2023/07/12 05:49:37;;;;;;;10.68;5.18;;;18.40;99.90;;;;;;4961487;28;20100;-88
2023/07/12 05:52:03;;;;;;;10.70;5.15;;;19.00;99.90;;;;;;4965372;28;20046;-87
2023/07/12 05:54:29;;;;;;;12.13;5.55;;;18.80;99.90;;;;;;5052355;28;20035;-87
2023/07/12 05:56:55;;;;;;;14.27;5.45;;;19.00;99.90;;;;;;5054894;28;20038;-88
2023/07/12 05:59:21;;;;;;;14.90;6.20;;;18.70;99.90;;;;;;4955788;28;20180;-87
2023/07/12 06:01:47;;;;;;;12.57;5.85;;;18.80;99.90;;;;;;5063507;28;20044;-88
2023/07/12 06:04:13;;;;;;;12.88;4.90;;;18.40;99.90;;;;;;4985227;28;20049;-87
2023/07/12 06:06:39;;;;;;;12.13;5.47;;;18.30;99.90;;;;;;4989535;28;20074;-88
2023/07/12 06:09:05;;;;;;;9.98;5.18;;;18.80;99.90;;;;;;4973136;28;20092;-87
2023/07/12 06:11:30;;;;;;;12.93;6.07;;;19.20;99.90;;;;;;4980924;28;20036;-87
2023/07/12 06:13:56;;;;;;;14.18;6.32;;;18.50;99.90;;;;;;4973001;28;20121;-88
2023/07/12 06:16:22;;;;;;;15.20;5.80;;;18.30;99.90;;;;;;4958358;28;20087;-87
2023/07/12 06:18:48;;;;;;;18.23;6.47;;;18.00;99.90;;;;;;4973121;28;20379;-87
2023/07/12 06:21:14;;;;;;;12.10;5.95;;;19.10;99.90;;;;;;4961062;28;20134;-87
2023/07/12 06:23:39;;;;;;;12.25;6.55;;;19.10;99.90;;;;;;5069390;28;20163;-87
2023/07/12 06:26:05;;;;;;;14.95;5.70;;;19.20;99.90;;;;;;5074650;28;20043;-87
2023/07/12 06:28:31;;;;;;;14.68;6.43;;;18.70;99.90;;;;;;5058318;28;20040;-87
2023/07/12 06:30:57;;;;;;;14.18;6.53;;;19.20;99.90;;;;;;5058263;28;22361;-87
2023/07/12 06:33:23;;;;;;;12.65;6.07;;;19.20;99.90;;;;;;4954649;28;20035;-86
2023/07/12 06:35:49;;;;;;;14.73;6.50;;;19.10;99.90;;;;;;4968363;28;20038;-86
2023/07/12 06:38:16;;;;;;;14.07;6.35;;;18.90;99.90;;;;;;4972567;28;20038;-86
2023/07/12 06:40:44;;;;;;;14.23;6.03;;;19.90;99.90;;;;;;5011558;28;20044;-86
2023/07/12 06:43:11;;;;;;;14.60;6.65;;;19.30;99.90;;;;;;4972818;28;20034;-86
2023/07/12 06:45:37;;;;;;;12.98;6.35;;;19.00;99.90;;;;;;5044832;28;20039;-86
2023/07/12 06:48:03;;;;;;;10.90;5.82;;;19.50;99.90;;;;;;4956773;28;20089;-86
2023/07/12 06:50:29;;;;;;;12.65;6.00;;;19.50;99.90;;;;;;4975768;28;20042;-85
2023/07/12 06:52:55;;;;;;;11.75;6.18;;;19.50;99.90;;;;;;4944575;28;20072;-86
2023/07/12 06:55:20;;;;;;;16.02;7.20;;;19.40;99.90;;;;;;4978973;28;20034;-86
2023/07/12 06:57:47;;;;;;;13.45;6.53;;;19.70;99.90;;;;;;5054478;28;20042;-87
2023/07/12 07:00:13;;;;;;;17.55;7.03;;;19.50;99.90;;;;;;5062410;28;20117;-86
2023/07/12 07:02:39;;;;;;;16.65;6.90;;;19.60;99.90;;;;;;4972676;28;20046;-87
2023/07/12 07:05:05;;;;;;;12.82;5.63;;;20.10;99.90;;;;;;4965774;28;20039;-87
2023/07/12 07:07:31;;;;;;;14.88;6.15;;;19.80;99.90;;;;;;5021185;28;20082;-86
2023/07/12 07:09:56;;;;;;;10.80;5.60;;;20.30;99.90;;;;;;5053471;28;20039;-86
2023/07/12 07:12:23;;;;;;;12.70;5.32;;;20.00;99.90;;;;;;5013810;28;20095;-87
2023/07/12 07:14:48;;;;;;;13.73;5.10;;;20.50;99.90;;;;;;4956132;28;20045;-87
2023/07/12 07:17:14;;;;;;;10.18;5.00;;;20.60;99.90;;;;;;5052915;28;20391;-86
2023/07/12 07:19:40;;;;;;;14.63;5.57;;;20.30;99.90;;;;;;4954080;28;20051;-85
2023/07/12 07:22:06;;;;;;;8.85;4.75;;;20.40;99.90;;;;;;4955948;28;20050;-86
2023/07/12 07:24:32;;;;;;;19.63;5.10;;;20.60;99.90;;;;;;5025492;28;20044;-86
2023/07/12 07:26:58;;;;;;;10.27;4.57;;;20.60;99.90;;;;;;4988303;28;20596;-85
2023/07/12 07:29:23;;;;;;;11.30;4.18;;;20.70;99.90;;;;;;5043547;28;20091;-86
2023/07/12 07:31:49;;;;;;;12.63;5.00;;;20.90;99.90;;;;;;4966546;28;20037;-85
2023/07/12 07:34:15;;;;;;;9.73;4.57;;;20.50;99.90;;;;;;5062719;28;20439;-85
2023/07/12 07:36:41;;;;;;;8.82;4.03;;;20.70;99.90;;;;;;4954926;28;20113;-85
2023/07/12 07:39:07;;;;;;;12.45;4.53;;;20.80;99.90;;;;;;5042442;28;20048;-86
2023/07/12 07:41:33;;;;;;;9.75;3.80;;;20.70;99.90;;;;;;4975590;28;20128;-87
2023/07/12 07:44:00;;;;;;;13.45;4.72;;;20.70;99.90;;;;;;4975399;28;20592;-86
2023/07/12 07:46:25;;;;;;;8.00;3.80;;;20.50;99.90;;;;;;4957680;28;20045;-86
2023/07/12 07:48:51;;;;;;;12.05;4.78;;;20.90;99.90;;;;;;5063076;28;20062;-86
2023/07/12 07:51:18;;;;;;;7.95;3.88;;;21.10;99.90;;;;;;4974969;28;20046;-87
2023/07/12 07:53:45;;;;;;;11.68;4.30;;;21.30;99.90;;;;;;4960615;28;20031;-87
2023/07/12 07:56:11;;;;;;;14.18;4.50;;;21.00;99.90;;;;;;4991603;28;20039;-86
2023/07/12 07:58:37;;;;;;;9.50;3.85;;;20.90;99.90;;;;;;4958476;28;20046;-87
2023/07/12 08:01:03;;;;;;;7.53;3.25;;;20.80;99.90;;;;;;5042319;28;20078;-87
2023/07/12 08:03:31;;;;;;;15.40;4.35;;;21.10;99.90;;;;;;4992238;28;20391;-86
2023/07/12 08:06:01;;;;;;;13.82;3.85;;;20.90;99.90;;;;;;4974031;28;20042;-87
2023/07/12 08:08:29;;;;;;;10.43;4.05;;;20.80;99.90;;;;;;4960349;28;20050;-88
2023/07/12 08:10:55;;;;;;;9.70;3.63;;;20.60;99.90;;;;;;4995589;28;20140;-87
2023/07/12 08:13:21;;;;;;;13.65;4.40;;;20.50;99.90;;;;;;4971773;28;20046;-87
2023/07/12 08:15:46;;;;;;;13.25;4.80;;;20.10;99.90;;;;;;4958846;28;20049;-87
2023/07/12 08:18:12;;;;;;;11.00;4.20;;;20.10;99.90;;;;;;4968347;28;20121;-86
2023/07/12 08:20:40;;;;;;;12.15;5.55;;;20.10;99.90;;;;;;4947195;28;20099;-86
2023/07/12 08:23:07;;;;;;;11.02;4.38;;;20.20;99.90;;;;;;4991519;28;20382;-86
2023/07/12 08:25:32;;;;;;;10.85;5.03;;;20.50;99.90;;;;;;4939441;28;20038;-88
2023/07/12 08:27:58;;;;;;;6.60;4.20;;;20.80;99.90;;;;;;4951072;28;20042;-88
2023/07/12 08:30:24;;;;;;;10.02;3.65;;;21.30;99.90;;;;;;4954785;28;20043;-85
2023/07/12 08:32:49;;;;;;;10.98;4.53;;;21.20;99.90;;;;;;4965475;28;20035;-86
2023/07/12 08:35:15;;;;;;;16.80;4.97;;;21.40;99.90;;;;;;5047298;28;20062;-88
2023/07/12 08:37:41;;;;;;;14.20;4.38;;;21.20;99.90;;;;;;5059602;28;20055;-87
2023/07/12 08:40:10;;;;;;;9.45;4.07;;;20.70;99.90;;;;;;5041574;28;20051;-86
2023/07/12 08:42:38;;;;;;;7.90;3.55;;;20.60;99.90;;;;;;5006636;28;20044;-87
2023/07/12 08:45:22;;;;;;;8.30;2.92;;;20.40;99.90;;;;;;5024357;28;20038;-87
2023/07/12 08:47:51;;;;;;;6.45;2.60;;;20.10;99.90;;;;;;4980507;28;20046;-87
2023/07/12 08:50:17;;;;;;;9.18;2.50;;;19.80;99.90;;;;;;4969721;28;20430;-88
2023/07/12 08:52:44;;;;;;;5.38;2.28;;;19.60;99.90;;;;;;4974732;28;20047;-87
2023/07/12 08:55:19;;;;;;;4.53;2.15;;;19.90;99.90;;;;;;4967079;28;20042;-88
2023/07/12 08:57:57;;;;;;;4.65;2.63;;;19.80;99.90;;;;;;5081139;28;20092;-88
2023/07/12 09:00:30;;;;;;;8.23;3.03;;;19.90;99.90;;;;;;4975812;28;20046;-89
2023/07/12 09:02:56;;;;;;;6.63;3.00;;;20.10;99.90;;;;;;5006307;28;20045;-89
2023/07/12 09:05:24;;;;;;;8.40;3.40;;;20.00;99.90;;;;;;5078740;28;20140;-90
2023/07/12 09:08:08;;;;;;;7.97;3.50;;;19.90;99.90;;;;;;5040807;28;20134;-89
2023/07/12 09:10:41;;;;;;;8.37;3.10;;;20.20;99.90;;;;;;4972239;28;20480;-89
2023/07/12 09:13:12;;;;;;;7.05;3.20;;;20.30;99.90;;;;;;4966862;28;20043;-89
2023/07/12 09:15:47;;;;;;;8.60;3.55;;;20.20;99.90;;;;;;4994178;28;20048;-90
2023/07/12 09:18:36;;;;;;;7.97;3.10;;;20.40;99.90;;;;;;4966567;28;20390;-89
2023/07/12 09:21:38;;;;;;;6.20;2.92;;;20.80;99.90;;;;;;4971862;28;20130;-88
2023/07/12 09:24:13;;;;;;;7.78;2.50;;;20.80;99.90;;;;;;4957405;28;20180;-88
2023/07/12 09:26:39;;;;;;;8.60;3.22;;;21.50;99.90;;;;;;4971094;28;20038;-90
2023/07/12 09:29:13;;;;;;;7.90;2.90;;;21.60;99.90;;;;;;4938259;28;20043;-88
2023/07/12 09:31:40;;;;;;;;;;;21.80;99.90;;;;;;4993536;28;20038;-88
2023/07/12 09:34:14;;;;;;;6.65;2.85;;;22.00;99.90;;;;;;4973298;28;19964;-88
2023/07/12 09:36:40;;;;;;;8.43;3.17;;;21.50;99.90;;;;;;5049211;28;20089;-88
2023/07/12 09:39:09;;;;;;;10.25;3.38;;;21.60;99.90;;;;;;5074838;28;20075;-88
2023/07/12 09:41:38;;;;;;;7.40;2.92;;;21.40;99.90;;;;;;4973488;28;20054;-89
2023/07/12 09:44:04;;;;;;;10.88;3.22;;;20.90;99.90;;;;;;5000771;28;20050;-88
2023/07/12 09:46:40;;;;;;;8.52;2.75;;;21.00;99.90;;;;;;4956774;28;20047;-88
2023/07/12 09:49:20;;;;;;;6.22;2.80;;;20.70;99.90;;;;;;4972383;28;20057;-88
2023/07/12 09:51:51;;;;;;;8.57;2.85;;;20.50;99.90;;;;;;4973321;28;20050;-88
2023/07/12 09:54:45;;;;;;;7.80;3.33;;;20.80;99.90;;;;;;5013818;28;20078;-88
2023/07/12 09:57:41;;;;;;;5.65;2.58;;;20.60;99.90;;;;;;4983692;28;20052;-89
2023/07/12 10:00:35;;;;;;;9.02;3.03;;;20.70;99.90;;;;;;5053780;28;20042;-88
2023/07/12 10:03:11;;;;;;;8.18;3.17;;;20.70;99.90;;;;;;5055555;28;20054;-88
2023/07/12 10:05:39;;;;;;;7.50;2.67;;;21.20;99.90;;;;;;4988895;28;20046;-88
2023/07/12 10:08:13;;;;;;;8.48;2.80;;;21.80;99.90;;;;;;5064184;28;20051;-88
2023/07/12 10:10:54;;;;;;;7.72;2.83;;;22.00;99.90;;;;;;5082033;28;20032;-89
2023/07/12 10:13:31;;;;;;;5.63;2.50;;;22.70;99.90;;;;;;4988185;28;20074;-88
2023/07/12 10:15:59;;;;;;;5.75;3.13;;;23.30;99.90;;;;;;4989767;28;20398;-88
2023/07/12 10:18:28;;;;;;;4.85;2.80;;;23.40;99.90;;;;;;5034928;28;20067;-87
2023/07/12 10:20:56;;;;;;;8.02;3.20;;;23.10;99.90;;;;;;5091401;28;20408;-88
2023/07/12 10:23:27;;;;;;;5.32;2.42;;;23.40;99.90;;;;;;5063707;28;20032;-89
2023/07/12 10:26:02;;;;;;;10.18;3.67;;;23.40;99.90;;;;;;4985200;28;20122;-88
2023/07/12 10:28:47;;;;;;;;;;;24.00;99.90;;;;;;4973464;28;20074;-88
2023/07/12 10:31:28;;;;;;;5.43;2.60;;;23.10;99.90;;;;;;4988132;28;19925;-88
2023/07/12 10:34:12;;;;;;;4.47;2.30;;;23.20;99.90;;;;;;4973406;28;20046;-87
2023/07/12 10:36:39;;;;;;;4.70;2.00;;;23.20;99.90;;;;;;5007828;28;20074;-88
2023/07/12 10:39:05;;;;;;;3.80;1.67;;;23.80;99.90;;;;;;5072934;28;20101;-88
2023/07/12 10:41:44;;;;;;;5.43;2.20;;;24.00;99.90;;;;;;5047821;28;20040;-88
2023/07/12 10:44:25;;;;;;;3.08;2.00;;;23.90;99.90;;;;;;4989239;28;20046;-90
2023/07/12 10:46:58;;;;;;;5.05;2.10;;;23.10;99.90;;;;;;4952639;28;20146;-87
2023/07/12 10:49:43;;;;;;;3.85;2.13;;;23.10;99.90;;;;;;5052535;28;21244;-87
2023/07/12 10:52:11;;;;;;;5.47;2.00;;;23.20;99.90;;;;;;4968100;28;20047;-87
2023/07/12 10:54:42;;;;;;;4.70;2.20;;;23.20;99.90;;;;;;4951622;28;20704;-86
2023/07/12 10:57:20;;;;;;;4.10;1.75;;;23.10;99.90;;;;;;5086213;28;20046;-87
2023/07/12 10:59:46;;;;;;;3.92;2.20;;;22.90;99.90;;;;;;5055562;28;20482;-87
2023/07/12 11:02:27;;;;;;;4.50;1.92;;;23.20;99.90;;;;;;4972391;28;20075;-87
2023/07/12 11:04:52;;;;;;;4.05;1.98;;;23.70;99.90;;;;;;4970884;28;20133;-88
2023/07/12 11:07:18;;;;;;;3.53;1.90;;;23.90;99.90;;;;;;5055578;28;20122;-87
2023/07/12 11:09:47;;;;;;;2.47;1.60;;;23.90;99.90;;;;;;4954855;28;20045;-87
2023/07/12 11:12:31;;;;;;;7.97;1.80;;;23.80;99.90;;;;;;4954013;28;20039;-88
2023/07/12 11:15:04;;;;;;;3.45;1.80;;;23.60;99.90;;;;;;5056990;28;20100;-87
2023/07/12 11:17:45;;;;;;;3.90;1.77;;;24.00;99.90;;;;;;4983849;28;20088;-87
2023/07/12 11:20:23;;;;;;;4.40;2.35;;;23.80;99.90;;;;;;5085086;28;20506;-88
2023/07/12 11:22:57;;;;;;;4.57;1.88;;;23.40;99.90;;;;;;4987226;28;20042;-86
2023/07/12 11:25:40;;;;;;;;;;;23.90;99.90;;;;;;4973940;28;20042;-87
2023/07/12 11:28:28;;;;;;;3.55;1.55;;;23.20;99.90;;;;;;5075367;28;19928;-85
2023/07/12 11:31:31;;;;;;;2.88;1.60;;;24.20;99.90;;;;;;4973972;28;20038;-84
2023/07/12 11:34:17;;;;;;;5.68;2.08;;;24.70;99.90;;;;;;4977978;28;20038;-86
2023/07/12 11:36:51;;;;;;;2.88;1.67;;;24.90;99.90;;;;;;4974842;28;20038;-86
2023/07/12 11:39:20;;;;;;;4.93;1.30;;;25.30;99.90;;;;;;5075877;28;20042;-87
2023/07/12 11:41:57;;;;;;;2.10;1.27;;;25.10;99.90;;;;;;4973289;28;20049;-89
2023/07/12 11:44:25;;;;;;;2.50;1.23;;;25.40;99.90;;;;;;4976344;28;20112;-88
2023/07/12 11:46:52;;;;;;;4.63;1.35;;;24.90;99.90;;;;;;5042771;28;20102;-88
2023/07/12 11:49:26;;;;;;;2.85;1.35;;;25.20;99.90;;;;;;5055906;28;20038;-88
2023/07/12 11:52:01;;;;;;;4.40;1.40;;;25.30;99.90;;;;;;5056922;28;20047;-89
2023/07/12 11:54:34;;;;;;;2.95;1.23;;;25.50;99.90;;;;;;4977498;28;20053;-88
2023/07/12 11:57:02;;;;;;;2.97;1.00;;;25.80;99.90;;;;;;5075973;28;20814;-88
2023/07/12 11:59:39;;;;;;;3.30;1.38;;;25.70;99.90;;;;;;4966794;28;20049;-89
2023/07/12 12:02:15;;;;;;;2.90;1.05;;;25.60;99.90;;;;;;4975540;28;20049;-88
2023/07/12 12:04:41;;;;;;;2.15;1.00;;;25.60;99.90;;;;;;4962810;28;20081;-88
2023/07/12 12:07:23;;;;;;;1.83;1.02;;;25.50;99.90;;;;;;5056862;28;20403;-89
2023/07/12 12:09:49;;;;;;;2.70;1.25;;;25.50;99.90;;;;;;5068617;28;20064;-90
2023/07/12 12:12:24;;;;;;;1.70;1.10;;;25.20;99.90;;;;;;5064811;28;20039;-88
2023/07/12 12:14:51;;;;;;;1.38;0.80;;;24.70;99.90;;;;;;4984581;28;20367;-88
2023/07/12 12:17:25;;;;;;;1.98;0.93;;;25.60;99.90;;;;;;4958585;28;20054;-89
2023/07/12 12:20:11;;;;;;;1.77;1.10;;;25.40;99.90;;;;;;5045243;28;20038;-88
2023/07/12 12:22:42;;;;;;;2.67;1.00;;;25.80;99.90;;;;;;4973202;28;20402;-89
2023/07/12 12:25:36;;;;;;;3.03;1.20;;;25.70;99.90;;;;;;4992139;28;20084;-88
2023/07/12 12:28:03;;;;;;;2.20;1.00;;;25.70;99.90;;;;;;4994817;28;20117;-88
2023/07/12 12:30:30;;;;;;;1.60;0.90;;;25.70;99.90;;;;;;5007551;28;20040;-88
2023/07/12 12:33:05;;;;;;;2.33;1.08;;;25.40;99.90;;;;;;4999981;28;20371;-90
2023/07/12 12:35:44;;;;;;;3.17;1.10;;;25.20;99.90;;;;;;4979096;28;20081;-88
2023/07/12 12:38:23;;;;;;;1.30;1.00;;;25.10;99.90;;;;;;5024055;28;20042;-88
2023/07/12 12:41:03;;;;;;;1.58;0.90;;;25.40;99.90;;;;;;4994149;28;20051;-87
2023/07/12 12:43:29;;;;;;;3.38;1.00;;;25.50;99.90;;;;;;4988658;28;20043;-87
2023/07/12 12:46:00;;;;;;;2.20;1.00;;;25.60;99.90;;;;;;5013974;28;20097;-87
2023/07/12 12:48:26;;;;;;;1.48;0.90;;;25.60;99.90;;;;;;5082247;28;20038;-87
2023/07/12 12:51:10;;;;;;;1.90;1.10;;;25.70;99.90;;;;;;4954504;28;20103;-87
2023/07/12 12:53:36;;;;;;;2.88;1.17;;;25.70;99.90;;;;;;5065749;28;20038;-86